Catoosa, OK (74015)

01:59 CST le 14 février 2016 (GMT -0600)
Catoosa | | Change Station
CLOSE
Current Station
Stations météorologiques personnelles
Location: Catoosa, OK
Altitude: 636 ft
Stations météo à proximité

Alt. 636 ft 36.18 °N, 95.75 °W | Updated 1 second ago

Couvert
Couvert
40.6 ° F
Paraît 32 ° F
N
18.4
Vent Variable Vent de Sud
Gusts 18.4 mph

Aujourd'hui
Haut(e) -- | Bas -- ° F
--% Risque de précip.
Hier
Haut(e) -- | Bas -- ° F
Precip. -- pouce
Pression 30.01 pouce
Visibilité 10.0 Miles terrestres
Nuages Couvert 3300 ft
Refroidissement éolien 32 ° F
Point de rosée 21 ° F
Humidité 45%
Précipitations 0.00 pouce
Profondeur de la couche neigeuse Non disponible.
7:12 AM 6:02 PM
Lune montante, 39% visible
METAR KTUL 140753Z 14013G22KT 10SM OVC033 05/M07 A3001 RMK AO2 SLP162 T00501067
Pression 30.01 pouce
Visibilité 10.0 Miles terrestres
Nuages Couvert 3300 ft
Refroidissement éolien 32 ° F
Point de rosée 21 ° F
Humidité 45%
Précipitations 0.00 pouce
Profondeur de la couche neigeuse Non disponible.
7:12 AM 6:02 PM
Lune montante, 39% visible
METAR KTUL 140753Z 14013G22KT 10SM OVC033 05/M07 A3001 RMK AO2 SLP162 T00501067

10-Day Weather Forecast

Almanac

Astronomie

Feb. 14, 2016 Lever Coucher
Temps réel
Crépuscule civil
Crépuscule nautique
Crépuscule astronomique
Lune
Durée de lumière visible
Longueur du jour
Tomorrow will be .
, % of the Moon is Illuminated

Extrêmes aujourd'hui

State Highs State Lows

Community

WunderPhotos

Upload Photos

1,892,757 Photos téléchargées !

WunderBlog® & News

Nearby

Qualité de l'air

  Qualité de l'air Indice de la qualité de l'air Polluant
Not available.

Épaisseur de neige

Station Depth Altitude

Activité sismique

Ville Distance Mag. Time & Date
Minimum magnitude displayed is 2.5.

Températures des eaux côtières

Lieu Température

Stations

Stations météo à proximité

Emplacement de la station Température Refroidissement éolien Point de rosée Humidité Vent Precip. Alt. Mise à jour Type
                   

Watches & Warnings

There are currently no watches in effect.